Time;durP1;ratioP1;P1;durP2;ratioP2;P2;SDS_P1;SDS_P2;PMS_P1;PMS_P2;Temp;Humidity;BMP_temperature;BMP_pressure;BME280_temperature;BME280_humidity;BME280_pressure;Samples;Min_cycle;Max_cycle;Signal;HPM_P1;HPM_P2
2022/04/12 00:02:27;;;;;;;15.80;6.37;;;;;;;4.54;49.57;92866.97;6200058;23;20044;-94
2022/04/12 00:05:11;;;;;;;15.50;6.22;;;;;;;4.36;50.17;92839.50;6227646;23;20083;-94
2022/04/12 00:08:10;;;;;;;;;;;;;;;;;;;;;
2022/04/12 00:11:00;;;;;;;;;;;;;;;;;;;;;
2022/04/12 00:19:02;;;;;;;16.67;6.30;;;;;;;4.57;51.77;92868.28;6196000;23;20016;-94
2022/04/12 00:19:43;;;;;;;13.95;6.20;;;;;;;4.55;51.60;92868.53;6205207;23;20016;-95
2022/04/12 00:22:41;;;;;;;;;;;;;;;;;;;;;
2022/04/12 00:25:16;;;;;;;13.02;6.75;;;;;;;4.25;51.23;92818.88;6243641;23;20051;-93
2022/04/12 00:27:52;;;;;;;13.25;5.82;;;;;;;4.11;51.66;92800.28;6244369;23;20435;-94
2022/04/12 00:30:43;;;;;;;15.57;6.03;;;;;;;4.08;51.92;92803.38;6225710;23;20091;-94
2022/04/12 00:33:42;;;;;;;;;;;;;;;;;;;;;
2022/04/12 00:36:30;;;;;;;10.93;5.30;;;;;;;3.95;51.53;92789.72;6200160;23;20078;-94
2022/04/12 00:39:34;;;;;;;10.82;5.47;;;;;;;3.93;51.46;92796.16;6205715;23;20024;-94
2022/04/12 00:42:31;;;;;;;10.27;5.10;;;;;;;4.18;51.25;92826.81;6176051;23;20023;-94
2022/04/12 00:45:18;;;;;;;;;;;;;;;;;;;;;
2022/04/12 00:47:57;;;;;;;12.07;5.78;;;;;;;4.19;51.56;92843.94;6202191;23;20004;-94
2022/04/12 00:50:56;;;;;;;11.32;5.60;;;;;;;4.36;52.06;92868.00;6224429;23;20443;-94
2022/04/12 00:54:11;;;;;;;11.50;5.72;;;;;;;4.15;52.03;92837.66;6173834;23;20027;-94
2022/04/12 00:56:41;;;;;;;11.25;5.82;;;;;;;3.85;51.99;92797.34;6219699;23;20094;-94
2022/04/12 00:59:22;;;;;;;12.20;5.60;;;;;;;3.83;51.99;92801.97;6220416;23;20016;-94
2022/04/12 01:02:02;;;;;;;11.15;5.43;;;;;;;4.00;52.10;92816.72;6197483;23;20020;-94
2022/04/12 01:05:05;;;;;;;10.20;5.15;;;;;;;3.77;52.42;92797.72;6199060;23;20443;-94
2022/04/12 01:07:54;;;;;;;11.00;5.32;;;;;;;3.71;52.47;92796.06;6183990;23;20097;-93
2022/04/12 01:10:33;;;;;;;9.95;5.47;;;;;;;3.77;52.13;92802.91;6198017;23;20067;-93
2022/04/12 01:13:31;;;;;;;11.43;5.15;;;;;;;3.69;52.37;92790.34;6175884;23;20531;-93
2022/04/12 01:16:33;;;;;;;;;;;;;;;;;;;;;
2022/04/12 01:19:29;;;;;;;;;;;;;;;;;;;;;
2022/04/12 01:22:23;;;;;;;11.38;5.30;;;;;;;3.58;52.51;92763.53;6221375;23;20016;-94
2022/04/12 01:25:18;;;;;;;12.10;5.85;;;;;;;3.75;52.36;92792.00;6218316;23;20020;-94
2022/04/12 01:27:54;;;;;;;11.80;6.18;;;;;;;3.84;53.12;92802.75;6220480;23;20012;-94
2022/04/12 01:30:28;;;;;;;11.20;5.20;;;;;;;3.61;53.31;92770.06;6220245;23;20088;-93
2022/04/12 01:32:58;;;;;;;11.60;5.68;;;;;;;3.61;53.48;92764.88;6196222;23;20039;-94
2022/04/12 01:35:55;;;;;;;12.07;5.90;;;;;;;3.78;54.14;92804.47;6196726;23;20019;-94
2022/04/12 01:38:48;;;;;;;13.35;5.68;;;;;;;3.81;54.25;92806.59;6198486;23;20012;-94
2022/04/12 01:41:57;;;;;;;13.57;5.25;;;;;;;3.65;53.94;92779.69;6221262;23;20008;-94
2022/04/12 01:44:37;;;;;;;;;;;;;;;;;;;;;
2022/04/12 01:47:17;;;;;;;11.00;5.30;;;;;;;3.62;54.15;92776.78;6199342;23;20027;-94
2022/04/12 01:50:06;;;;;;;9.95;5.10;;;;;;;3.55;54.53;92766.59;6152926;23;20020;-94
2022/04/12 01:52:49;;;;;;;;;;;;;;;;;;;;;
2022/04/12 01:55:41;;;;;;;;;;;;;;;;;;;;;
2022/04/12 01:58:43;;;;;;;;;;;;;;;;;;;;;
2022/04/12 02:01:35;;;;;;;11.80;5.35;;;;;;;4.00;54.61;92829.66;6247510;23;20134;-94
2022/04/12 02:04:33;;;;;;;;;;;;;;;;;;;;;
2022/04/12 02:07:54;;;;;;;;;;;;;;;;;;;;;
2022/04/12 02:10:33;;;;;;;11.85;5.25;;;;;;;3.84;53.87;92798.34;6221089;23;20347;-93
2022/04/12 02:13:16;;;;;;;11.48;5.80;;;;;;;3.70;54.06;92758.28;6222733;23;20016;-94
2022/04/12 02:16:07;;;;;;;11.75;5.70;;;;;;;3.83;53.65;92773.50;6199331;23;20013;-94
2022/04/12 02:19:12;;;;;;;10.32;5.00;;;;;;;3.78;53.76;92765.63;6196834;23;20015;-94
2022/04/12 02:21:52;;;;;;;10.73;5.63;;;;;;;4.20;54.07;92835.13;6197305;23;20012;-94
2022/04/12 02:24:54;;;;;;;13.32;5.63;;;;;;;4.10;53.94;92820.25;6207075;23;20096;-94
2022/04/12 02:27:41;;;;;;;13.02;5.88;;;;;;;4.24;53.82;92833.63;6178765;23;20020;-95
2022/04/12 02:30:56;;;;;;;;;;;;;;;;;;;;;
2022/04/12 02:33:54;;;;;;;10.63;5.40;;;;;;;4.25;54.44;92832.59;6247762;23;20023;-94
2022/04/12 02:36:29;;;;;;;13.95;5.07;;;;;;;3.72;54.29;92751.84;6197796;23;20009;-94
2022/04/12 02:39:28;;;;;;;13.23;4.82;;;;;;;3.89;53.81;92776.91;6198412;23;20016;-94
2022/04/12 02:42:38;;;;;;;;;;;;;;;;;;;;;
2022/04/12 02:45:26;;;;;;;8.60;4.30;;;;;;;4.14;52.44;92789.44;6201630;23;20125;-94
2022/04/12 02:48:20;;;;;;;12.65;4.65;;;;;;;4.33;52.32;92816.66;6197837;23;20020;-94
2022/04/12 02:51:01;;;;;;;13.18;4.70;;;;;;;4.02;52.24;92765.44;6201001;23;20058;-93
2022/04/12 02:53:53;;;;;;;9.15;4.40;;;;;;;4.21;52.60;92792.66;6195754;23;20024;-94
2022/04/12 02:56:59;;;;;;;11.43;4.95;;;;;;;3.87;52.95;92748.69;6219076;23;20012;-94
2022/04/12 02:59:57;;;;;;;;;;;;;;;;;;;;;
2022/04/12 03:02:33;;;;;;;9.03;4.57;;;;;;;3.75;53.34;92745.41;6199494;23;20676;-94
2022/04/12 03:05:12;;;;;;;12.75;4.47;;;;;;;3.71;53.53;92741.72;6197900;23;20017;-95
2022/04/12 03:07:51;;;;;;;11.77;4.75;;;;;;;3.85;53.51;92763.69;6196934;23;20455;-95
2022/04/12 03:10:53;;;;;;;10.32;4.85;;;;;;;3.73;54.17;92745.63;6170544;23;20127;-94
2022/04/12 03:13:57;;;;;;;;;;;;;;;;;;;;;
2022/04/12 03:16:43;;;;;;;12.52;5.43;;;;;;;3.53;53.58;92722.84;6267427;23;20000;-93
2022/04/12 03:19:49;;;;;;;;;;;;;;;;;;;;;
2022/04/12 03:22:41;;;;;;;;;;;;;;;;;;;;;
2022/04/12 03:26:18;;;;;;;;;;;;;;;;;;;;;
2022/04/12 03:28:58;;;;;;;9.82;4.90;;;;;;;3.35;54.40;92707.53;6220061;23;20044;-94
2022/04/12 03:31:30;;;;;;;11.50;4.97;;;;;;;3.64;54.04;92741.09;6195995;23;20525;-94
2022/04/12 03:34:18;;;;;;;10.48;5.20;;;;;;;3.49;53.45;92723.53;6221076;23;20012;-94
2022/04/12 03:37:09;;;;;;;12.75;4.82;;;;;;;3.69;53.79;92748.91;6221934;23;20012;-95
2022/04/12 03:40:16;;;;;;;;;;;;;;;;;;;;;
2022/04/12 03:43:16;;;;;;;11.68;4.97;;;;;;;3.69;54.58;92764.47;6221029;23;20012;-94
2022/04/12 03:48:55;;;;;;;12.57;5.38;;;;;;;3.75;54.58;92779.06;6217162;23;20454;-94
2022/04/12 03:51:39;;;;;;;13.40;5.60;;;;;;;3.49;54.51;92737.25;6153572;23;20035;-94
2022/04/12 03:54:33;;;;;;;12.52;5.22;;;;;;;3.38;54.54;92729.56;6225402;23;20094;-94
2022/04/12 03:57:21;;;;;;;8.45;4.60;;;;;;;3.83;54.51;92796.78;6198849;23;20440;-94
2022/04/12 04:00:28;;;;;;;9.82;4.78;;;;;;;3.53;55.16;92759.06;6207643;23;20052;-94
2022/04/12 04:03:41;;;;;;;9.93;4.97;;;;;;;3.28;54.95;92727.59;6205392;23;20099;-94
2022/04/12 04:06:43;;;;;;;;;;;;;;;;;;;;;
2022/04/12 04:09:23;;;;;;;;;;;;;;;;;;;;;
2022/04/12 04:12:28;;;;;;;10.93;5.20;;;;;;;3.28;55.00;92719.84;6248911;23;20020;-95
2022/04/12 04:15:12;;;;;;;11.70;4.72;;;;;;;3.31;55.53;92724.53;6200691;23;20047;-95
2022/04/12 04:18:07;;;;;;;11.73;5.20;;;;;;;3.27;55.52;92728.63;6199376;23;20081;-93
2022/04/12 04:20:38;;;;;;;16.27;5.13;;;;;;;3.25;55.58;92730.69;6198750;23;20115;-94
2022/04/12 04:23:24;;;;;;;;;;;;;;;;;;;;;
2022/04/12 04:26:19;;;;;;;14.75;5.68;;;;;;;3.21;54.94;92714.81;6229154;23;20091;-94
2022/04/12 04:29:10;;;;;;;12.15;5.60;;;;;;;3.36;54.51;92753.09;6198063;23;20008;-94
2022/04/12 04:31:56;;;;;;;;;;;;;;;;;;;;;
2022/04/12 04:35:10;;;;;;;;;;;;;;;;;;;;;
2022/04/12 04:38:13;;;;;;;13.07;5.65;;;;;;;3.59;54.23;92808.34;6205773;23;20419;-89
2022/04/12 04:41:09;;;;;;;12.00;5.57;;;;;;;3.25;54.67;92746.19;6223332;23;20517;-88
2022/04/12 04:43:35;;;;;;;14.00;5.72;;;;;;;3.44;54.75;92776.00;6219032;23;20016;-89
2022/04/12 04:46:17;;;;;;;9.95;5.00;;;;;;;3.23;54.97;92737.88;6221734;23;20083;-89
2022/04/12 04:48:45;;;;;;;11.68;5.00;;;;;;;3.69;55.47;92805.88;6194264;23;20098;-88
2022/04/12 04:51:41;;;;;;;;;;;;;;;;;;;;;
2022/04/12 04:54:14;;;;;;;11.68;5.78;;;;;;;3.47;54.65;92764.41;6219145;23;20012;-89
2022/04/12 04:56:52;;;;;;;13.90;5.55;;;;;;;3.49;54.96;92765.75;6219257;23;20074;-90
2022/04/12 04:59:27;;;;;;;11.05;5.65;;;;;;;3.84;54.55;92816.47;6195810;23;20463;-90
2022/04/12 05:02:10;;;;;;;;;;;;;;;;;;;;;
2022/04/12 05:08:02;;;;;;;14.43;6.07;;;;;;;3.94;53.64;92802.88;6247450;23;20083;-90
2022/04/12 05:11:08;;;;;;;11.88;5.85;;;;;;;4.05;53.42;92812.38;6224972;23;20039;-89
2022/04/12 05:14:12;;;;;;;10.50;5.25;;;;;;;3.67;53.14;92736.22;6246868;23;20083;-90
2022/04/12 05:16:51;;;;;;;14.20;6.18;;;;;;;3.80;53.20;92734.31;6222592;23;20431;-89
2022/04/12 05:19:17;;;;;;;14.43;5.85;;;;;;;3.90;52.81;92737.84;6219339;23;20040;-89
2022/04/12 05:22:02;;;;;;;;;;;;;;;;;;;;;
2022/04/12 05:24:46;;;;;;;12.15;5.72;;;;;;;4.47;52.62;92782.63;6220003;23;20015;-89
2022/04/12 05:27:22;;;;;;;13.18;5.68;;;;;;;4.20;52.33;92731.47;6246157;23;20012;-90
2022/04/12 05:29:48;;;;;;;11.68;5.90;;;;;;;4.34;52.22;92743.03;6219949;23;20533;-88
2022/04/12 05:32:14;;;;;;;16.75;6.05;;;;;;;4.63;51.83;92775.78;6219544;23;20004;-88
2022/04/12 05:34:43;;;;;;;11.95;5.78;;;;;;;4.56;51.83;92734.50;6220468;23;20012;-88
2022/04/12 05:37:14;;;;;;;12.98;5.55;;;;;;;5.02;51.31;92784.25;6219419;23;20399;-89
2022/04/12 05:39:40;;;;;;;13.18;5.47;;;;;;;4.86;51.22;92741.03;6194176;23;20455;-89
2022/04/12 05:42:13;;;;;;;12.43;5.90;;;;;;;5.32;51.36;92783.00;6194754;23;20335;-89
2022/04/12 05:44:42;;;;;;;16.67;5.78;;;;;;;5.32;51.14;92755.22;6219531;23;20525;-88
2022/04/12 05:47:12;;;;;;;14.23;6.35;;;;;;;5.68;50.48;92797.06;6219869;23;20012;-88
2022/04/12 05:49:38;;;;;;;12.55;6.03;;;;;;;5.56;51.05;92760.88;6219470;23;20375;-89
2022/04/12 05:52:39;;;;;;;;;;;;;;;;;;;;;
2022/04/12 05:55:39;;;;;;;13.68;5.55;;;;;;;5.92;49.68;92747.34;6246465;23;20293;-90
2022/04/12 05:58:25;;;;;;;;;;;;;;;;;;;;;
2022/04/12 06:00:56;;;;;;;10.23;5.50;;;;;;;7.06;46.08;92833.47;6246708;23;20038;-89
2022/04/12 06:03:32;;;;;;;12.10;5.50;;;;;;;6.95;45.53;92766.81;6196156;23;20012;-91
2022/04/12 06:06:19;;;;;;;11.07;5.75;;;;;;;7.38;43.70;92796.06;6246479;23;20040;-89
2022/04/12 06:09:03;;;;;;;11.15;5.20;;;;;;;7.50;43.73;92762.75;6200855;23;20411;-91
2022/04/12 06:11:34;;;;;;;11.82;5.40;;;;;;;7.96;42.66;92801.81;6224625;23;20016;-89
2022/04/12 06:14:23;;;;;;;12.25;5.57;;;;;;;8.03;41.73;92771.06;6249885;23;20437;-89
2022/04/12 06:17:04;;;;;;;;;;;;;;;;;;;;;
2022/04/12 06:19:50;;;;;;;11.35;5.40;;;;;;;11.59;35.54;92764.34;6219401;23;20075;-90
2022/04/12 06:22:46;;;;;;;11.95;5.90;;;;;;;14.76;31.50;92787.94;6244752;23;20083;-90
2022/04/12 06:25:23;;;;;;;11.40;6.20;;;;;;;16.96;28.38;92768.06;6197054;23;20020;-90
2022/04/12 06:28:32;;;;;;;12.60;5.93;;;;;;;18.23;24.57;92780.28;6221141;23;20046;-90
2022/04/12 06:31:21;;;;;;;;;;;;;;;;;;;;;
2022/04/12 06:33:58;;;;;;;9.00;5.20;;;;;;;16.73;26.49;92777.28;6245819;23;20012;-91
2022/04/12 06:36:35;;;;;;;8.98;5.30;;;;;;;17.68;26.40;92821.81;6245308;23;20462;-92
2022/04/12 06:39:09;;;;;;;11.35;5.30;;;;;;;15.45;28.58;92762.84;6219190;23;20100;-91
2022/04/12 06:41:46;;;;;;;10.05;4.85;;;;;;;15.80;28.54;92768.94;6217955;23;20012;-90
2022/04/12 06:44:32;;;;;;;;;;;;;;;;;;;;;
2022/04/12 06:47:33;;;;;;;13.30;5.97;;;;;;;14.81;31.92;92776.50;6244914;23;20016;-91
2022/04/12 06:50:10;;;;;;;9.68;4.75;;;;;;;15.70;30.46;92792.97;6218351;23;20008;-91
2022/04/12 06:52:39;;;;;;;11.65;5.20;;;;;;;16.80;28.83;92764.41;6192790;23;20103;-90
2022/04/12 06:55:37;;;;;;;11.32;4.50;;;;;;;17.22;28.60;92775.09;6221957;23;20091;-90
2022/04/12 06:58:16;;;;;;;13.30;5.20;;;;;;;18.27;26.81;92807.69;6199455;23;20119;-91
2022/04/12 07:00:47;;;;;;;9.52;4.78;;;;;;;19.26;25.28;92790.09;6244753;23;20048;-90
2022/04/12 07:03:30;;;;;;;12.27;4.85;;;;;;;16.99;28.00;92787.81;6244392;23;20062;-88
2022/04/12 07:06:30;;;;;;;11.27;4.53;;;;;;;16.77;28.28;92786.91;6222135;23;20013;-89
2022/04/12 07:09:08;;;;;;;;;;;;;;;;;;;;;
2022/04/12 07:11:52;;;;;;;;;;;;;;;;;;;;;
2022/04/12 07:14:24;;;;;;;10.48;5.10;;;;;;;13.61;33.28;92792.78;6245716;23;20067;-90
2022/04/12 07:17:06;;;;;;;;;;;;;;;;;;;;;
2022/04/12 07:20:09;;;;;;;12.27;5.53;;;;;;;12.52;34.79;92789.94;6217722;23;20016;-90
2022/04/12 07:23:00;;;;;;;;;;;;;;;;;;;;;
2022/04/12 07:25:38;;;;;;;10.50;4.45;;;;;;;11.74;36.33;92807.94;6221240;23;20000;-89
2022/04/12 07:28:19;;;;;;;;;;;;;;;;;;;;;
2022/04/12 07:30:50;;;;;;;12.10;5.10;;;;;;;11.67;37.25;92834.53;6245409;23;20027;-89
2022/04/12 07:33:33;;;;;;;;;;;;;;;;;;;;;
2022/04/12 07:36:43;;;;;;;;;;;;;;;;;;;;;
2022/04/12 07:39:22;;;;;;;;;;;;;;;;;;;;;
2022/04/12 07:42:16;;;;;;;12.07;5.13;;;;;;;11.44;38.54;92836.16;6255722;23;20019;-90
2022/04/12 07:45:01;;;;;;;11.05;5.15;;;;;;;11.20;37.12;92798.72;6205608;23;20090;-88
2022/04/12 07:47:59;;;;;;;13.30;5.35;;;;;;;10.45;39.40;92780.97;6207686;23;20019;-88
2022/04/12 07:50:29;;;;;;;9.65;5.13;;;;;;;10.66;37.64;92787.56;6198363;23;20016;-90
2022/04/12 07:53:26;;;;;;;10.25;5.72;;;;;;;10.88;38.79;92847.28;6194316;23;20024;-89
2022/04/12 07:56:17;;;;;;;12.80;4.95;;;;;;;10.16;41.18;92785.16;6221538;23;20005;-90
2022/04/12 07:59:12;;;;;;;;;;;;;;;;;;;;;
2022/04/12 08:01:59;;;;;;;9.38;5.00;;;;;;;10.07;41.76;92805.13;6246013;23;20052;-90
2022/04/12 08:05:00;;;;;;;;;;;;;;;;;;;;;
2022/04/12 08:07:44;;;;;;;;;;;;;;;;;;;;;
2022/04/12 08:10:19;;;;;;;10.15;5.15;;;;;;;11.02;40.82;92860.50;6222478;23;20074;-89
2022/04/12 08:13:24;;;;;;;10.43;5.13;;;;;;;11.04;40.73;92864.41;6221185;23;20083;-90
2022/04/12 08:16:00;;;;;;;12.00;5.28;;;;;;;10.23;40.93;92791.91;6220003;23;20532;-89
2022/04/12 08:18:36;;;;;;;12.07;5.25;;;;;;;10.39;41.04;92801.97;6218773;23;20036;-89
2022/04/12 08:21:14;;;;;;;11.20;5.30;;;;;;;10.87;39.97;92816.13;6170550;23;20028;-89
2022/04/12 08:23:53;;;;;;;9.77;5.22;;;;;;;10.93;39.54;92792.22;6218600;23;20016;-90
2022/04/12 08:26:20;;;;;;;12.18;5.47;;;;;;;10.63;40.21;92796.75;6193491;23;20035;-89
2022/04/12 08:32:11;;;;;;;10.52;5.47;;;;;;;11.34;38.80;92789.09;6226349;23;20035;-89
2022/04/12 08:34:50;;;;;;;11.65;5.40;;;;;;;11.48;36.96;92814.59;6220154;23;20090;-90
2022/04/12 08:37:38;;;;;;;11.02;5.25;;;;;;;12.19;38.24;92855.56;6246998;23;20086;-90
2022/04/12 08:40:33;;;;;;;10.32;5.55;;;;;;;12.11;37.51;92856.22;6220662;23;20008;-91
2022/04/12 08:43:15;;;;;;;9.23;5.20;;;;;;;11.20;38.15;92807.34;6221299;23;20099;-93
2022/04/12 08:46:04;;;;;;;14.05;5.30;;;;;;;11.32;38.00;92824.50;6244078;23;20282;-92
2022/04/12 08:48:58;;;;;;;11.07;6.20;;;;;;;11.43;36.92;92787.38;6218131;23;20098;-91
2022/04/12 08:51:42;;;;;;;12.55;6.07;;;;;;;12.11;37.24;92829.97;6219871;23;20104;-93
2022/04/12 08:54:18;;;;;;;12.43;5.63;;;;;;;11.10;37.84;92789.16;6218952;23;20019;-91
2022/04/12 08:56:57;;;;;;;13.48;5.68;;;;;;;11.72;37.45;92791.72;6195383;23;20035;-91
2022/04/12 08:59:33;;;;;;;11.43;5.15;;;;;;;11.64;37.30;92797.59;6196367;23;20020;-90
2022/04/12 09:02:23;;;;;;;10.93;5.75;;;;;;;11.11;37.33;92798.56;6245855;23;20016;-90
2022/04/12 09:04:54;;;;;;;11.18;5.68;;;;;;;11.64;37.15;92787.91;6192206;23;20016;-91
2022/04/12 09:07:53;;;;;;;11.98;5.80;;;;;;;12.19;35.78;92828.56;6196414;23;20008;-91
2022/04/12 09:10:42;;;;;;;13.63;5.75;;;;;;;12.13;37.25;92819.97;6197968;23;20019;-91
2022/04/12 09:16:40;;;;;;;11.27;5.43;;;;;;;11.75;37.35;92783.25;6215782;23;20016;-91
2022/04/12 09:19:31;;;;;;;13.48;5.95;;;;;;;11.64;35.95;92784.47;6196923;23;20671;-90
2022/04/12 09:22:10;;;;;;;;;;;;;;;;;;;;;
2022/04/12 09:25:04;;;;;;;10.95;6.13;;;;;;;12.33;36.54;92839.84;6218757;23;20016;-91
2022/04/12 09:27:44;;;;;;;11.18;5.30;;;;;;;12.01;37.32;92790.78;6198181;23;20016;-90
2022/04/12 09:30:18;;;;;;;15.38;5.25;;;;;;;11.83;36.92;92814.09;6220201;23;20020;-91
2022/04/12 09:33:07;;;;;;;9.25;4.97;;;;;;;11.57;37.87;92799.78;6246017;23;20008;-90
2022/04/12 09:35:38;;;;;;;12.45;5.60;;;;;;;12.27;36.15;92802.44;6218867;23;20040;-90
2022/04/12 09:38:50;;;;;;;9.95;5.28;;;;;;;12.35;36.60;92842.19;6221284;23;20018;-91
2022/04/12 09:42:00;;;;;;;14.48;5.63;;;;;;;12.96;35.96;92779.91;6218801;23;20031;-92
2022/04/12 09:45:02;;;;;;;12.30;5.53;;;;;;;12.87;35.75;92819.22;6196050;23;20066;-91
2022/04/12 09:47:46;;;;;;;;;;;;;;;;;;;;;
2022/04/12 09:50:38;;;;;;;14.07;4.90;;;;;;;12.38;36.33;92758.38;6218682;23;20024;-92
2022/04/12 09:53:46;;;;;;;9.23;4.57;;;;;;;13.11;34.07;92779.63;6194651;23;20104;-91
2022/04/12 09:56:23;;;;;;;8.35;4.00;;;;;;;12.74;35.70;92762.22;6195500;23;20019;-91
2022/04/12 09:59:01;;;;;;;10.05;4.40;;;;;;;12.92;34.73;92753.44;6194039;23;20015;-91
2022/04/12 10:01:55;;;;;;;;;;;;;;;;;;;;;
2022/04/12 10:04:40;;;;;;;9.50;4.60;;;;;;;13.23;34.69;92756.22;6225398;23;20103;-91
2022/04/12 10:07:15;;;;;;;9.13;4.55;;;;;;;12.53;36.71;92762.59;6170728;23;20074;-91
2022/04/12 10:09:58;;;;;;;10.15;4.20;;;;;;;12.70;34.32;92749.66;6245494;23;20012;-91
2022/04/12 10:12:34;;;;;;;8.02;3.67;;;;;;;12.57;35.73;92770.69;6196784;23;20059;-90
2022/04/12 10:15:35;;;;;;;9.07;4.53;;;;;;;13.22;35.03;92806.47;6172816;23;20020;-91
2022/04/12 10:18:15;;;;;;;7.03;3.70;;;;;;;13.05;35.07;92765.78;6218836;23;20351;-92
2022/04/12 10:20:49;;;;;;;9.90;4.15;;;;;;;12.62;34.79;92760.06;6246939;23;20016;-90
2022/04/12 10:23:37;;;;;;;;;;;;;;;;;;;;;
2022/04/12 10:26:30;;;;;;;8.18;4.03;;;;;;;12.13;34.83;92740.47;6199406;23;20020;-90
2022/04/12 10:29:19;;;;;;;;;;;;;;;;;;;;;
2022/04/12 10:32:17;;;;;;;11.30;4.47;;;;;;;13.27;34.29;92778.22;6245164;23;20040;-89
2022/04/12 10:35:05;;;;;;;11.83;4.33;;;;;;;13.30;34.36;92772.38;6206687;23;20039;-90
2022/04/12 10:37:41;;;;;;;8.90;3.85;;;;;;;12.46;33.97;92717.56;6198473;23;20076;-89
2022/04/12 10:40:31;;;;;;;;;;;;;;;;;;;;;
2022/04/12 10:43:08;;;;;;;9.38;4.25;;;;;;;12.85;34.06;92726.78;6218729;23;20016;-89
2022/04/12 10:45:57;;;;;;;11.02;4.43;;;;;;;13.27;33.64;92704.59;6221698;23;20050;-89
2022/04/12 10:48:29;;;;;;;9.48;4.70;;;;;;;13.64;33.29;92757.97;6244750;23;20637;-89
2022/04/12 10:51:27;;;;;;;10.35;4.78;;;;;;;13.28;33.33;92721.97;6222790;23;20489;-89
2022/04/12 10:57:31;;;;;;;10.00;5.03;;;;;;;13.95;32.48;92771.22;6205063;23;20063;-89
2022/04/12 11:00:33;;;;;;;14.25;5.55;;;;;;;13.65;31.71;92737.72;6219752;23;20322;-89
2022/04/12 11:03:12;;;;;;;11.57;4.82;;;;;;;14.21;32.83;92725.84;6193046;23;20016;-89
2022/04/12 11:06:06;;;;;;;10.60;4.70;;;;;;;13.63;33.31;92737.25;6216974;23;20012;-90
2022/04/12 11:08:32;;;;;;;9.05;4.18;;;;;;;14.49;32.03;92765.94;6218295;23;20528;-88
2022/04/12 11:11:26;;;;;;;;;;;;;;;;;;;;;
2022/04/12 11:14:39;;;;;;;8.27;4.65;;;;;;;14.50;32.15;92758.81;6244816;23;20103;-91
2022/04/12 11:17:22;;;;;;;14.27;5.20;;;;;;;13.68;33.83;92708.19;6193321;23;20023;-90
2022/04/12 11:19:52;;;;;;;11.70;4.32;;;;;;;14.20;33.41;92723.50;6171351;23;20020;-89
2022/04/12 11:22:45;;;;;;;13.27;4.90;;;;;;;14.21;32.63;92677.66;6192860;23;20020;-90
2022/04/12 11:25:26;;;;;;;13.23;5.13;;;;;;;13.65;32.88;92683.28;6191514;23;20036;-91
2022/04/12 11:28:19;;;;;;;;;;;;;;;;;;;;;
2022/04/12 11:31:11;;;;;;;10.30;4.60;;;;;;;14.10;32.69;92742.97;6218748;23;20099;-90
2022/04/12 11:33:43;;;;;;;11.23;6.00;;;;;;;14.08;32.80;92697.75;6217169;23;20004;-91
2022/04/12 11:36:25;;;;;;;11.63;5.63;;;;;;;14.42;32.44;92704.25;6243539;23;20115;-91
2022/04/12 11:39:05;;;;;;;11.52;6.15;;;;;;;14.49;33.15;92746.72;6192709;23;20016;-92
2022/04/12 11:41:57;;;;;;;11.40;5.70;;;;;;;14.80;31.96;92735.41;6181855;23;20016;-90
2022/04/12 11:44:47;;;;;;;;;;;;;;;;;;;;;
2022/04/12 11:47:53;;;;;;;12.38;5.50;;;;;;;14.55;32.57;92735.03;6215299;23;20016;-90
2022/04/12 11:50:46;;;;;;;11.23;5.63;;;;;;;14.61;32.77;92707.44;6174679;23;20094;-90
2022/04/12 11:53:15;;;;;;;13.18;5.70;;;;;;;14.73;31.18;92759.56;6191385;23;20012;-91
2022/04/12 11:56:06;;;;;;;11.48;5.90;;;;;;;14.46;32.58;92731.56;6189166;23;20440;-91
2022/04/12 11:58:44;;;;;;;13.52;6.18;;;;;;;13.86;33.41;92698.56;6205628;23;20453;-90
2022/04/12 12:01:38;;;;;;;9.10;5.03;;;;;;;14.48;33.30;92713.59;6141033;23;20020;-91
2022/04/12 12:04:32;;;;;;;;;;;;;;;;;;;;;
2022/04/12 12:07:13;;;;;;;12.32;5.20;;;;;;;14.68;32.92;92699.88;6169488;23;20021;-91
2022/04/12 12:09:56;;;;;;;10.25;4.63;;;;;;;14.71;32.48;92722.97;6169131;23;20021;-89
2022/04/12 12:12:46;;;;;;;10.20;5.15;;;;;;;14.42;32.31;92694.50;6194032;23;20023;-90
2022/04/12 12:15:54;;;;;;;12.50;5.03;;;;;;;14.86;33.57;92771.06;6145184;23;20024;-90
2022/04/12 12:18:56;;;;;;;11.43;5.63;;;;;;;15.11;33.13;92762.47;6166742;23;20085;-91
2022/04/12 12:21:38;;;;;;;19.27;5.63;;;;;;;14.81;33.02;92743.00;6166777;23;20016;-93
2022/04/12 12:24:34;;;;;;;;;;;;;;;;;;;;;
2022/04/12 12:27:07;;;;;;;9.30;4.88;;;;;;;14.94;33.23;92767.69;6192985;23;20459;-90
2022/04/12 12:29:47;;;;;;;12.05;6.63;;;;;;;14.27;33.44;92690.41;6216752;23;20020;-91
2022/04/12 12:32:42;;;;;;;;;;;;;;;;;;;;;
2022/04/12 12:35:37;;;;;;;8.85;5.05;;;;;;;13.93;33.78;92710.19;6216292;23;20091;-90
2022/04/12 12:38:32;;;;;;;11.68;5.75;;;;;;;14.84;32.90;92738.97;6190513;23;20483;-91
2022/04/12 12:41:29;;;;;;;11.68;5.20;;;;;;;14.66;32.75;92736.31;6168228;23;20017;-90
2022/04/12 12:44:07;;;;;;;11.23;5.93;;;;;;;14.72;33.05;92708.72;6209769;23;20016;-90
2022/04/12 12:50:42;;;;;;;15.20;6.40;;;;;;;14.49;33.81;92712.50;6224402;23;20032;-91
2022/04/12 12:53:42;;;;;;;12.88;6.60;;;;;;;14.64;34.03;92720.03;6196566;23;20024;-90
2022/04/12 12:56:40;;;;;;;14.20;6.93;;;;;;;14.69;33.96;92698.03;6246483;23;20012;-90
2022/04/12 12:59:57;;;;;;;15.57;6.32;;;;;;;15.08;33.60;92697.16;6194456;23;20016;-90
2022/04/12 13:02:46;;;;;;;14.32;6.30;;;;;;;15.11;32.70;92699.19;6174972;23;20024;-89
2022/04/12 13:05:33;;;;;;;;;;;;;;;;;;;;;
2022/04/12 13:08:27;;;;;;;18.13;5.95;;;;;;;14.38;33.61;92689.03;6246360;23;20095;-90
2022/04/12 13:11:27;;;;;;;16.33;7.25;;;;;;;14.97;33.22;92704.63;6191890;23;20078;-91
2022/04/12 13:14:08;;;;;;;;;;;;;;;;;;;;;
2022/04/12 13:16:44;;;;;;;14.18;7.35;;;;;;;14.72;33.01;92685.00;6196835;23;20020;-90
2022/04/12 13:19:47;;;;;;;;;;;;;;;;;;;;;
2022/04/12 13:22:19;;;;;;;13.65;6.68;;;;;;;14.80;34.32;92716.97;6219348;23;20016;-92
2022/04/12 13:24:57;;;;;;;12.70;7.13;;;;;;;14.76;33.63;92727.34;6171061;23;20452;-90
2022/04/12 13:27:30;;;;;;;13.30;6.00;;;;;;;14.92;33.61;92672.34;6218863;23;20026;-90
2022/04/12 13:30:08;;;;;;;16.25;7.00;;;;;;;14.64;33.48;92675.22;6219885;23;20448;-90
2022/04/12 13:32:47;;;;;;;14.32;6.07;;;;;;;14.99;33.53;92707.72;6195429;23;20016;-89
2022/04/12 13:35:36;;;;;;;14.80;6.63;;;;;;;14.62;33.87;92714.28;6219288;23;20012;-90
2022/04/12 13:38:44;;;;;;;;;;;;;;;;;;;;;
2022/04/12 13:41:31;;;;;;;;;;;;;;;;;;;;;
2022/04/12 13:44:10;;;;;;;11.07;6.13;;;;;;;14.89;33.88;92733.59;6225200;23;20096;-90
2022/04/12 13:46:39;;;;;;;12.30;6.60;;;;;;;14.59;34.00;92670.13;6220308;23;20106;-90
2022/04/12 13:49:15;;;;;;;17.73;6.35;;;;;;;14.30;34.17;92671.38;6218759;23;20008;-90
2022/04/12 13:52:10;;;;;;;14.48;6.45;;;;;;;14.66;34.77;92677.53;6194277;23;20317;-91
2022/04/12 13:54:48;;;;;;;13.43;6.90;;;;;;;14.67;34.57;92685.16;6202401;23;20035;-90
2022/04/12 13:57:36;;;;;;;14.80;6.90;;;;;;;14.51;33.93;92676.88;6194568;23;20016;-90
2022/04/12 14:00:23;;;;;;;14.25;6.53;;;;;;;14.52;33.80;92683.69;6220206;23;20128;-90
2022/04/12 14:03:11;;;;;;;;;;;;;;;;;;;;;
2022/04/12 14:06:05;;;;;;;15.50;7.20;;;;;;;14.45;34.07;92688.59;6239114;23;20012;-90
2022/04/12 14:08:55;;;;;;;16.95;7.55;;;;;;;14.00;34.71;92653.72;6245986;23;20018;-91
2022/04/12 14:11:39;;;;;;;;;;;;;;;;;;;;;
2022/04/12 14:14:47;;;;;;;14.88;7.95;;;;;;;14.22;33.86;92647.66;6244302;23;20051;-90
2022/04/12 14:17:41;;;;;;;;;;;;;;;;;;;;;
2022/04/12 14:20:22;;;;;;;16.08;7.00;;;;;;;14.62;34.21;92656.31;6225548;23;20435;-91
2022/04/12 14:23:00;;;;;;;14.73;7.07;;;;;;;15.04;33.91;92688.34;6218594;23;20059;-90
2022/04/12 14:25:41;;;;;;;17.92;7.57;;;;;;;15.09;33.68;92682.16;6193980;23;20119;-91
2022/04/12 14:28:47;;;;;;;;;;;;;;;;;;;;;
2022/04/12 14:31:41;;;;;;;13.60;7.07;;;;;;;14.84;33.70;92667.81;6218580;23;20028;-90
2022/04/12 14:34:36;;;;;;;14.18;6.60;;;;;;;14.94;33.58;92683.34;6218722;23;20018;-89
2022/04/12 14:37:12;;;;;;;15.02;7.28;;;;;;;14.82;33.93;92677.91;6174194;23;20106;-90
2022/04/12 14:39:47;;;;;;;16.45;7.40;;;;;;;14.82;33.35;92627.84;6245360;23;20016;-92
2022/04/12 14:42:18;;;;;;;14.13;7.22;;;;;;;15.27;33.52;92661.84;6193769;23;20486;-90
2022/04/12 14:45:05;;;;;;;16.95;7.68;;;;;;;14.65;34.06;92654.94;6218201;23;20008;-90
2022/04/12 14:48:04;;;;;;;15.32;7.30;;;;;;;14.80;33.58;92645.81;6205384;23;20024;-90
2022/04/12 14:50:40;;;;;;;;;;;;;;;;;;;;;
2022/04/12 14:53:35;;;;;;;14.98;7.22;;;;;;;14.87;34.12;92638.22;6246497;23;20043;-90
2022/04/12 14:56:20;;;;;;;13.95;7.18;;;;;;;14.37;34.31;92655.91;6195072;23;20012;-91
2022/04/12 14:59:22;;;;;;;13.75;7.18;;;;;;;14.52;34.08;92646.03;6192929;23;20474;-90
2022/04/12 15:02:10;;;;;;;13.50;6.22;;;;;;;14.16;34.38;92645.16;6202744;23;20119;-90
2022/04/12 15:04:58;;;;;;;16.90;7.03;;;;;;;14.59;34.61;92649.03;6194605;23;20023;-90